Time;durP1;ratioP1;P1;durP2;ratioP2;P2;SDS_P1;SDS_P2;PMS_P1;PMS_P2;Temp;Humidity;BMP_temperature;BMP_pressure;BME280_temperature;BME280_humidity;BME280_pressure;Samples;Min_cycle;Max_cycle;Signal;HPM_P1;HPM_P2
2021/09/17 00:00:44;;;;;;;15.90;6.68;;;;;;;;;;5073036;28;20024;-68
2021/09/17 00:03:10;;;;;;;16.25;6.07;;;;;;;;;;5073242;28;20041;-69
2021/09/17 00:05:36;;;;;;;16.38;6.65;;;;;;;;;;5072869;28;20112;-69
2021/09/17 00:08:02;;;;;;;16.10;6.30;;;;;;;;;;5072857;28;20058;-69
2021/09/17 00:10:29;;;;;;;14.57;6.88;;;;;;;;;;5072639;28;20090;-68
2021/09/17 00:12:55;;;;;;;14.98;6.60;;;;;;;;;;5072848;28;20028;-68
2021/09/17 00:15:22;;;;;;;17.30;6.93;;;;;;;;;;5073089;28;20032;-68
2021/09/17 00:17:48;;;;;;;13.20;6.47;;;;;;;;;;5072620;28;20418;-69
2021/09/17 00:20:15;;;;;;;17.35;7.65;;;;;;;;;;5072873;28;20029;-69
2021/09/17 00:22:41;;;;;;;14.45;6.50;;;;;;;;;;5072865;28;20044;-69
2021/09/17 00:25:08;;;;;;;15.27;5.93;;;;;;;;;;5073115;28;20078;-69
2021/09/17 00:27:34;;;;;;;21.30;6.85;;;;;;;;;;5073076;28;20116;-69
2021/09/17 00:30:00;;;;;;;21.77;6.78;;;;;;;;;;5072445;28;20024;-69
2021/09/17 00:32:26;;;;;;;16.80;6.72;;;;;;;;;;5072650;28;20041;-68
2021/09/17 00:34:53;;;;;;;16.05;6.63;;;;;;;;;;5072893;28;20061;-69
2021/09/17 00:37:19;;;;;;;13.25;6.65;;;;;;;;;;5072836;28;20033;-68
2021/09/17 00:39:45;;;;;;;15.88;6.55;;;;;;;;;;5072870;28;20122;-68
2021/09/17 00:42:11;;;;;;;17.00;6.45;;;;;;;;;;5072756;28;20049;-69
2021/09/17 00:44:37;;;;;;;15.88;7.18;;;;;;;;;;5072638;28;20032;-69
2021/09/17 00:47:03;;;;;;;16.45;6.60;;;;;;;;;;5072594;28;20037;-68
2021/09/17 00:49:29;;;;;;;15.73;6.40;;;;;;;;;;5072298;28;20029;-68
2021/09/17 00:51:55;;;;;;;17.25;6.25;;;;;;;;;;5072843;28;20094;-68
2021/09/17 00:54:22;;;;;;;16.20;7.22;;;;;;;;;;5072602;28;20039;-69
2021/09/17 00:56:48;;;;;;;18.13;6.43;;;;;;;;;;5072582;28;20045;-68
2021/09/17 00:59:14;;;;;;;16.45;6.60;;;;;;;;;;5069913;28;20033;-69
2021/09/17 01:01:40;;;;;;;12.43;6.50;;;;;;;;;;5069653;28;20040;-69
2021/09/17 01:04:07;;;;;;;13.80;6.65;;;;;;;;;;5070275;28;20090;-68
2021/09/17 01:06:35;;;;;;;14.65;6.72;;;;;;;;;;5072407;28;20097;-68
2021/09/17 01:09:01;;;;;;;14.85;6.75;;;;;;;;;;5072241;28;20082;-68
2021/09/17 01:11:28;;;;;;;15.02;6.50;;;;;;;;;;5072194;28;20039;-68
2021/09/17 01:13:54;;;;;;;19.52;6.65;;;;;;;;;;5071837;28;20044;-68
2021/09/17 01:16:20;;;;;;;14.82;7.15;;;;;;;;;;5072404;28;20041;-68
2021/09/17 01:18:46;;;;;;;17.15;6.95;;;;;;;;;;5072019;28;20033;-68
2021/09/17 01:21:13;;;;;;;18.42;6.70;;;;;;;;;;5071852;28;20048;-68
2021/09/17 01:23:39;;;;;;;12.35;6.07;;;;;;;;;;5072144;28;20037;-68
2021/09/17 01:26:05;;;;;;;17.40;6.50;;;;;;;;;;5072437;28;20405;-69
2021/09/17 01:28:32;;;;;;;17.15;6.75;;;;;;;;;;5072216;28;20033;-68
2021/09/17 01:30:59;;;;;;;20.02;6.78;;;;;;;;;;5074353;28;20036;-69
2021/09/17 01:33:25;;;;;;;16.80;6.70;;;;;;;;;;5075895;28;20060;-69
2021/09/17 01:35:57;;;;;;;22.42;6.55;;;;;;;;;;5075690;28;20037;-68
2021/09/17 01:38:23;;;;;;;;;;;;;;;;;;5076200;28;20086;-68
2021/09/17 01:40:49;;;;;;;23.80;7.05;;;;;;;;;;5075604;28;19912;-68
2021/09/17 01:43:15;;;;;;;14.18;6.70;;;;;;;;;;5075649;28;20039;-68
2021/09/17 01:45:41;;;;;;;13.65;6.45;;;;;;;;;;5075715;28;20039;-68
2021/09/17 01:48:07;;;;;;;20.63;6.70;;;;;;;;;;5075642;28;20029;-69
2021/09/17 01:50:33;;;;;;;14.80;6.60;;;;;;;;;;5075470;28;20048;-69
2021/09/17 01:52:59;;;;;;;12.43;6.63;;;;;;;;;;5075553;28;20040;-68
2021/09/17 01:55:25;;;;;;;11.32;6.00;;;;;;;;;;5075773;28;20036;-68
2021/09/17 01:57:52;;;;;;;17.33;5.95;;;;;;;;;;5075280;28;20111;-69
2021/09/17 02:00:18;;;;;;;15.70;6.10;;;;;;;;;;5075348;28;20158;-69
2021/09/17 02:02:45;;;;;;;11.80;6.40;;;;;;;;;;5075475;28;20094;-68
2021/09/17 02:05:11;;;;;;;17.90;7.43;;;;;;;;;;5075708;28;20032;-68
2021/09/17 02:07:37;;;;;;;17.98;7.30;;;;;;;;;;5075532;28;20146;-69
2021/09/17 02:10:04;;;;;;;14.57;7.05;;;;;;;;;;5075878;28;20025;-69
2021/09/17 02:12:30;;;;;;;15.90;7.55;;;;;;;;;;5075368;28;20036;-68
2021/09/17 02:14:56;;;;;;;12.10;7.22;;;;;;;;;;5074807;28;20102;-68
2021/09/17 02:17:23;;;;;;;17.85;8.20;;;;;;;;;;5075539;28;20306;-68
2021/09/17 02:19:49;;;;;;;15.10;8.02;;;;;;;;;;5075413;28;20024;-68
2021/09/17 02:22:15;;;;;;;16.38;7.47;;;;;;;;;;5074903;28;20098;-68
2021/09/17 02:24:41;;;;;;;15.50;7.25;;;;;;;;;;5075062;28;20039;-69
2021/09/17 02:27:07;;;;;;;18.42;7.32;;;;;;;;;;5074909;28;20044;-69
2021/09/17 02:29:34;;;;;;;12.27;7.20;;;;;;;;;;5074718;28;20037;-69
2021/09/17 02:32:00;;;;;;;17.70;7.53;;;;;;;;;;5075009;28;20043;-69
2021/09/17 02:34:26;;;;;;;14.88;7.10;;;;;;;;;;5074584;28;20033;-68
2021/09/17 02:36:52;;;;;;;13.73;7.03;;;;;;;;;;5074831;28;20037;-68
2021/09/17 02:39:18;;;;;;;16.70;7.28;;;;;;;;;;5074867;28;20154;-68
2021/09/17 02:41:44;;;;;;;15.45;7.15;;;;;;;;;;5074442;28;20044;-69
2021/09/17 02:44:11;;;;;;;15.90;8.63;;;;;;;;;;5074599;28;20029;-69
2021/09/17 02:46:37;;;;;;;13.93;7.20;;;;;;;;;;5074617;28;20029;-68
2021/09/17 02:49:03;;;;;;;19.70;7.97;;;;;;;;;;5074344;28;20366;-68
2021/09/17 02:51:29;;;;;;;13.45;6.53;;;;;;;;;;5074315;28;20438;-68
2021/09/17 02:53:58;;;;;;;8.80;6.53;;;;;;;;;;5074343;28;20056;-69
2021/09/17 02:56:24;;;;;;;13.02;7.20;;;;;;;;;;5074046;28;20087;-69
2021/09/17 02:58:50;;;;;;;11.90;6.72;;;;;;;;;;5074139;28;20484;-69
2021/09/17 03:01:16;;;;;;;18.50;8.40;;;;;;;;;;5074122;28;20072;-69
2021/09/17 03:03:42;;;;;;;21.90;9.35;;;;;;;;;;5074469;28;20032;-68
2021/09/17 03:06:09;;;;;;;36.25;9.10;;;;;;;;;;5074343;28;20036;-69
2021/09/17 03:08:35;;;;;;;23.10;7.50;;;;;;;;;;5074288;28;20032;-69
2021/09/17 03:11:01;;;;;;;17.85;6.88;;;;;;;;;;5074145;28;20033;-69
2021/09/17 03:13:28;;;;;;;11.07;5.43;;;;;;;;;;5073893;28;20450;-68
2021/09/17 03:15:54;;;;;;;9.00;3.85;;;;;;;;;;5074212;28;20040;-69
2021/09/17 03:18:21;;;;;;;7.75;4.15;;;;;;;;;;5074129;28;20029;-69
2021/09/17 03:20:49;;;;;;;5.88;3.05;;;;;;;;;;5073779;28;20037;-68
2021/09/17 03:23:15;;;;;;;5.68;2.45;;;;;;;;;;5074073;28;20044;-68
2021/09/17 03:25:41;;;;;;;7.85;1.70;;;;;;;;;;5073991;28;20025;-69
2021/09/17 03:28:08;;;;;;;5.68;1.83;;;;;;;;;;5073779;28;20048;-68
2021/09/17 03:30:34;;;;;;;4.05;2.05;;;;;;;;;;5073795;28;20029;-68
2021/09/17 03:33:00;;;;;;;3.13;1.58;;;;;;;;;;5073808;28;20370;-69
2021/09/17 03:35:26;;;;;;;6.88;1.38;;;;;;;;;;5073659;28;20041;-69
2021/09/17 03:37:52;;;;;;;3.92;1.48;;;;;;;;;;5073653;28;20036;-68
2021/09/17 03:40:18;;;;;;;3.80;1.50;;;;;;;;;;5073412;28;20063;-68
2021/09/17 03:42:44;;;;;;;7.13;1.90;;;;;;;;;;5073696;28;20075;-68
2021/09/17 03:45:11;;;;;;;7.20;2.17;;;;;;;;;;5073858;28;20028;-68
2021/09/17 03:47:37;;;;;;;4.00;1.52;;;;;;;;;;5073387;28;20477;-68
2021/09/17 03:50:04;;;;;;;4.88;1.52;;;;;;;;;;5073294;28;20060;-69
2021/09/17 03:52:30;;;;;;;5.30;1.40;;;;;;;;;;5072782;28;20123;-68
2021/09/17 03:54:57;;;;;;;3.97;1.20;;;;;;;;;;5073460;28;20119;-69
2021/09/17 03:57:23;;;;;;;3.60;1.60;;;;;;;;;;5073651;28;20130;-69
2021/09/17 03:59:49;;;;;;;4.88;1.27;;;;;;;;;;5073027;28;20138;-67
2021/09/17 04:02:15;;;;;;;4.55;1.27;;;;;;;;;;5073318;28;20076;-68
2021/09/17 04:04:41;;;;;;;4.15;1.30;;;;;;;;;;5073152;28;20025;-69
2021/09/17 04:07:08;;;;;;;6.63;1.20;;;;;;;;;;5073413;28;20641;-70
2021/09/17 04:09:34;;;;;;;2.25;1.00;;;;;;;;;;5073090;28;20028;-69
2021/09/17 04:12:01;;;;;;;3.00;1.20;;;;;;;;;;5073154;28;20032;-69
2021/09/17 04:14:27;;;;;;;7.45;1.50;;;;;;;;;;5072941;28;20052;-69
2021/09/17 04:16:54;;;;;;;9.90;1.70;;;;;;;;;;5073169;28;20473;-70
2021/09/17 04:19:20;;;;;;;4.32;1.65;;;;;;;;;;5073222;28;20033;-69
2021/09/17 04:21:46;;;;;;;4.55;1.90;;;;;;;;;;5072830;28;20431;-70
2021/09/17 04:24:12;;;;;;;8.25;2.13;;;;;;;;;;5072994;28;20027;-70
2021/09/17 04:26:38;;;;;;;3.30;1.70;;;;;;;;;;5072976;28;20036;-69
2021/09/17 04:29:04;;;;;;;6.28;2.10;;;;;;;;;;5072852;28;20024;-70
2021/09/17 04:31:31;;;;;;;7.13;1.90;;;;;;;;;;5072940;28;20484;-70
2021/09/17 04:33:57;;;;;;;4.60;1.90;;;;;;;;;;5072638;28;20083;-70
2021/09/17 04:36:23;;;;;;;3.42;1.60;;;;;;;;;;5072558;28;20029;-69
2021/09/17 04:38:49;;;;;;;5.20;2.00;;;;;;;;;;5071354;28;20374;-70
2021/09/17 04:41:16;;;;;;;3.05;1.73;;;;;;;;;;5072866;28;20051;-70
2021/09/17 04:43:42;;;;;;;5.43;1.80;;;;;;;;;;5073116;28;20565;-69
2021/09/17 04:46:08;;;;;;;5.30;1.83;;;;;;;;;;5072915;28;20025;-69
2021/09/17 04:48:34;;;;;;;3.13;1.80;;;;;;;;;;5072511;28;20040;-69
2021/09/17 04:51:00;;;;;;;5.55;2.00;;;;;;;;;;5072567;28;20536;-69
2021/09/17 04:53:26;;;;;;;9.57;2.47;;;;;;;;;;5072723;28;20036;-69
2021/09/17 04:55:53;;;;;;;5.45;1.98;;;;;;;;;;5072735;28;20114;-70
2021/09/17 04:58:19;;;;;;;8.10;2.25;;;;;;;;;;5072766;28;20036;-70
2021/09/17 05:00:45;;;;;;;5.13;2.05;;;;;;;;;;5072484;28;20055;-70
2021/09/17 05:03:11;;;;;;;5.45;2.03;;;;;;;;;;5072243;28;20110;-70
2021/09/17 05:05:37;;;;;;;3.50;1.83;;;;;;;;;;5075906;28;20031;-69
2021/09/17 05:08:03;;;;;;;4.97;2.10;;;;;;;;;;5076318;28;20435;-69
2021/09/17 05:10:30;;;;;;;5.13;1.90;;;;;;;;;;5076340;28;20043;-69
2021/09/17 05:12:56;;;;;;;4.07;1.90;;;;;;;;;;5076406;28;20043;-70
2021/09/17 05:15:22;;;;;;;5.10;1.75;;;;;;;;;;5076633;28;20478;-70
2021/09/17 05:17:48;;;;;;;6.55;2.00;;;;;;;;;;5076507;28;20064;-69
2021/09/17 05:20:15;;;;;;;3.33;1.85;;;;;;;;;;5075996;28;20033;-69
2021/09/17 05:22:41;;;;;;;5.25;2.00;;;;;;;;;;5075926;28;20053;-69
2021/09/17 05:25:08;;;;;;;4.30;1.75;;;;;;;;;;5076142;28;20029;-69
2021/09/17 05:27:34;;;;;;;9.90;3.05;;;;;;;;;;5076254;28;20119;-69
2021/09/17 05:30:00;;;;;;;6.47;1.92;;;;;;;;;;5078141;28;20039;-70
2021/09/17 05:32:26;;;;;;;3.90;2.15;;;;;;;;;;5075994;28;20512;-69
2021/09/17 05:34:53;;;;;;;5.65;2.17;;;;;;;;;;5075925;28;20039;-69
2021/09/17 05:37:19;;;;;;;4.82;2.30;;;;;;;;;;5076010;28;20033;-70
2021/09/17 05:39:45;;;;;;;8.40;2.40;;;;;;;;;;5076127;28;20041;-69
2021/09/17 05:42:11;;;;;;;3.67;2.15;;;;;;;;;;5075710;28;20044;-69
2021/09/17 05:44:37;;;;;;;7.10;2.10;;;;;;;;;;5075738;28;20052;-69
2021/09/17 05:47:03;;;;;;;2.88;2.30;;;;;;;;;;5075612;28;20044;-69
2021/09/17 05:49:30;;;;;;;6.28;2.08;;;;;;;;;;5075739;28;20110;-69
2021/09/17 05:51:56;;;;;;;5.32;2.00;;;;;;;;;;5075535;28;20037;-69
2021/09/17 05:54:22;;;;;;;7.50;1.63;;;;;;;;;;5073670;28;20024;-68
2021/09/17 05:56:48;;;;;;;5.82;1.70;;;;;;;;;;5075118;28;20124;-70
2021/09/17 05:59:14;;;;;;;2.85;1.50;;;;;;;;;;5075116;28;20389;-68
2021/09/17 06:01:40;;;;;;;5.28;1.83;;;;;;;;;;5079060;28;20105;-69
2021/09/17 06:04:06;;;;;;;5.95;2.00;;;;;;;;;;5091138;28;20529;-71
2021/09/17 06:06:33;;;;;;;4.78;2.00;;;;;;;;;;5095263;28;20032;-69
2021/09/17 06:09:00;;;;;;;6.50;1.95;;;;;;;;;;5087966;28;20048;-70
2021/09/17 06:11:26;;;;;;;3.35;1.65;;;;;;;;;;5089785;28;20064;-69
2021/09/17 06:13:53;;;;;;;5.15;1.70;;;;;;;;;;5078200;28;20106;-69
2021/09/17 06:16:19;;;;;;;5.55;1.98;;;;;;;;;;5077548;28;20647;-69
2021/09/17 06:18:45;;;;;;;2.17;1.50;;;;;;;;;;5083943;28;20107;-69
2021/09/17 06:21:11;;;;;;;3.35;1.77;;;;;;;;;;5075547;28;20033;-69
2021/09/17 06:23:37;;;;;;;3.88;1.60;;;;;;;;;;5074805;28;20033;-69
2021/09/17 06:26:03;;;;;;;3.28;2.10;;;;;;;;;;5074969;28;20032;-69
2021/09/17 06:28:29;;;;;;;6.72;1.70;;;;;;;;;;5074360;28;20028;-68
2021/09/17 06:30:55;;;;;;;2.42;1.60;;;;;;;;;;5074506;28;20097;-69
2021/09/17 06:33:21;;;;;;;5.82;1.92;;;;;;;;;;5074440;28;20511;-70
2021/09/17 06:35:47;;;;;;;3.92;1.83;;;;;;;;;;5073611;28;20036;-69
2021/09/17 06:38:14;;;;;;;3.15;1.60;;;;;;;;;;5074327;28;20505;-69
2021/09/17 06:40:40;;;;;;;4.13;1.80;;;;;;;;;;5074648;28;20133;-69
2021/09/17 06:43:06;;;;;;;3.95;1.73;;;;;;;;;;5074725;28;20382;-69
2021/09/17 06:45:32;;;;;;;3.70;1.80;;;;;;;;;;5074165;28;20027;-70
2021/09/17 06:47:59;;;;;;;4.55;2.00;;;;;;;;;;5090487;28;20032;-69
2021/09/17 06:50:26;;;;;;;2.78;1.73;;;;;;;;;;5095159;28;20039;-70
2021/09/17 06:52:53;;;;;;;3.17;1.77;;;;;;;;;;5094986;28;20032;-70
2021/09/17 06:55:27;;;;;;;7.50;1.80;;;;;;;;;;5094770;28;20044;-70
2021/09/17 06:57:54;;;;;;;5.97;1.60;;;;;;;;;;5095019;28;20424;-70
2021/09/17 07:00:21;;;;;;;3.50;1.55;;;;;;;;;;5094858;28;20032;-70
2021/09/17 07:02:48;;;;;;;3.45;1.90;;;;;;;;;;5094759;28;20170;-69
2021/09/17 07:05:14;;;;;;;5.57;1.70;;;;;;;;;;5094828;28;20024;-69
2021/09/17 07:07:40;;;;;;;3.63;1.60;;;;;;;;;;5094634;28;20039;-69
2021/09/17 07:10:07;;;;;;;4.60;1.50;;;;;;;;;;5091829;28;20446;-70
2021/09/17 07:12:34;;;;;;;9.55;1.75;;;;;;;;;;5091392;28;20086;-68
2021/09/17 07:15:00;;;;;;;4.38;1.60;;;;;;;;;;5091822;28;20373;-68
2021/09/17 07:17:26;;;;;;;6.20;2.25;;;;;;;;;;5094341;28;20442;-69
2021/09/17 07:19:52;;;;;;;4.38;1.52;;;;;;;;;;5094422;28;20485;-69
2021/09/17 07:22:20;;;;;;;6.75;1.80;;;;;;;;;;5092329;28;20048;-69
2021/09/17 07:24:46;;;;;;;4.15;1.50;;;;;;;;;;5091566;28;20050;-69
2021/09/17 07:27:12;;;;;;;6.05;1.90;;;;;;;;;;5090266;28;20040;-69
2021/09/17 07:29:38;;;;;;;5.97;1.58;;;;;;;;;;5091081;28;20028;-70
2021/09/17 07:32:05;;;;;;;3.65;1.40;;;;;;;;;;5091211;28;20036;-70
2021/09/17 07:34:31;;;;;;;2.65;1.80;;;;;;;;;;5092785;28;20028;-69
2021/09/17 07:36:57;;;;;;;1.73;1.20;;;;;;;;;;5094146;28;20093;-68
2021/09/17 07:39:23;;;;;;;2.08;1.35;;;;;;;;;;5093934;28;20035;-69
2021/09/17 07:41:49;;;;;;;3.15;1.60;;;;;;;;;;5093856;28;20048;-69
2021/09/17 07:44:15;;;;;;;5.10;1.25;;;;;;;;;;5093587;28;20392;-69
2021/09/17 07:46:41;;;;;;;6.68;1.50;;;;;;;;;;5093563;28;20048;-69
2021/09/17 07:49:07;;;;;;;6.20;1.35;;;;;;;;;;5093497;28;20035;-70
2021/09/17 07:51:34;;;;;;;6.07;1.63;;;;;;;;;;5093658;28;20060;-69
2021/09/17 07:54:00;;;;;;;5.40;1.52;;;;;;;;;;5093640;28;20024;-68
2021/09/17 07:56:26;;;;;;;2.55;1.50;;;;;;;;;;5093415;28;20044;-70
2021/09/17 07:58:52;;;;;;;8.20;1.90;;;;;;;;;;5092877;28;20032;-69
2021/09/17 08:01:18;;;;;;;10.05;1.90;;;;;;;;;;5092711;28;20055;-70
2021/09/17 08:03:44;;;;;;;4.65;1.40;;;;;;;;;;5090813;28;20493;-69
2021/09/17 08:06:12;;;;;;;7.65;2.00;;;;;;;;;;5093782;28;20055;-70
2021/09/17 08:08:38;;;;;;;7.88;1.73;;;;;;;;;;5093694;28;20111;-69
2021/09/17 08:11:05;;;;;;;8.52;1.75;;;;;;;;;;5093368;28;20032;-70
2021/09/17 08:13:31;;;;;;;3.75;1.20;;;;;;;;;;5093375;28;20080;-69
2021/09/17 08:15:57;;;;;;;1.77;1.30;;;;;;;;;;5092971;28;20089;-70
2021/09/17 08:18:25;;;;;;;3.67;1.70;;;;;;;;;;5093287;28;20454;-69
2021/09/17 08:20:52;;;;;;;4.50;1.38;;;;;;;;;;5093456;28;20036;-70
2021/09/17 08:23:21;;;;;;;2.50;1.20;;;;;;;;;;5093400;28;20079;-70
2021/09/17 08:25:50;;;;;;;3.05;1.20;;;;;;;;;;5093340;28;20086;-69
2021/09/17 08:28:16;;;;;;;3.88;1.50;;;;;;;;;;5093606;28;20479;-69
2021/09/17 08:30:42;;;;;;;1.80;1.33;;;;;;;;;;5093377;28;20024;-70
2021/09/17 08:33:09;;;;;;;3.28;1.13;;;;;;;;;;5093055;28;20107;-69
2021/09/17 08:35:35;;;;;;;2.17;1.20;;;;;;;;;;5093323;28;20032;-69
2021/09/17 08:38:01;;;;;;;3.47;1.30;;;;;;;;;;5092797;28;20113;-69
2021/09/17 08:40:28;;;;;;;8.18;1.90;;;;;;;;;;5092816;28;20116;-69
2021/09/17 08:42:56;;;;;;;2.40;1.30;;;;;;;;;;5093291;28;20044;-69
2021/09/17 08:45:22;;;;;;;3.03;1.25;;;;;;;;;;5093176;28;20039;-70
2021/09/17 08:47:51;;;;;;;4.10;1.30;;;;;;;;;;5093075;28;20071;-69
2021/09/17 08:50:18;;;;;;;3.92;1.50;;;;;;;;;;5093322;28;20032;-69
2021/09/17 08:52:44;;;;;;;5.60;1.45;;;;;;;;;;5093239;28;20082;-69
2021/09/17 08:55:10;;;;;;;3.83;1.52;;;;;;;;;;5093055;28;20090;-69
2021/09/17 08:57:36;;;;;;;4.97;2.22;;;;;;;;;;5092986;28;20064;-69
2021/09/17 09:00:06;;;;;;;4.60;1.50;;;;;;;;;;5093015;28;20115;-69
2021/09/17 09:02:33;;;;;;;6.88;1.50;;;;;;;;;;5093010;28;20032;-68
2021/09/17 09:05:02;;;;;;;8.48;1.80;;;;;;;;;;5092917;28;20038;-69
2021/09/17 09:07:31;;;;;;;4.85;2.28;;;;;;;;;;5092896;28;20118;-69
2021/09/17 09:10:11;;;;;;;9.85;2.08;;;;;;;;;;5092679;28;20051;-70
2021/09/17 09:12:48;;;;;;;3.22;1.40;;;;;;;;;;5092839;28;20395;-69
2021/09/17 09:15:19;;;;;;;5.68;1.48;;;;;;;;;;5092936;28;20048;-70
2021/09/17 09:17:45;;;;;;;5.45;1.50;;;;;;;;;;5092874;28;20040;-69
2021/09/17 09:20:23;;;;;;;7.03;1.30;;;;;;;;;;5092914;28;20029;-69
2021/09/17 09:23:05;;;;;;;3.65;1.45;;;;;;;;;;5092742;28;20044;-69
2021/09/17 09:25:31;;;;;;;5.20;1.50;;;;;;;;;;5092625;28;20465;-70
2021/09/17 09:28:30;;;;;;;3.30;1.40;;;;;;;;;;5092736;28;20534;-69
2021/09/17 09:30:57;;;;;;;3.15;1.52;;;;;;;;;;5048237;28;20036;-69
2021/09/17 09:33:28;;;;;;;2.55;1.13;;;;;;;;;;5092697;28;20029;-69
2021/09/17 09:35:56;;;;;;;13.52;1.70;;;;;;;;;;5092607;28;20036;-70
2021/09/17 09:38:29;;;;;;;3.05;1.30;;;;;;;;;;5092763;28;20495;-69
2021/09/17 09:41:02;;;;;;;4.80;1.40;;;;;;;;;;5092629;28;20086;-69
2021/09/17 09:43:31;;;;;;;8.48;1.40;;;;;;;;;;5092869;28;20040;-69
2021/09/17 09:46:16;;;;;;;1.73;1.17;;;;;;;;;;5092728;28;20036;-70
2021/09/17 09:48:51;;;;;;;2.72;1.38;;;;;;;;;;5092542;28;20029;-69
2021/09/17 09:51:17;;;;;;;3.70;1.42;;;;;;;;;;5093473;28;20040;-70
2021/09/17 09:53:43;;;;;;;2.22;1.20;;;;;;;;;;5095891;28;20059;-69
2021/09/17 09:56:09;;;;;;;6.53;1.40;;;;;;;;;;5095665;28;20526;-70
2021/09/17 09:58:35;;;;;;;3.70;1.45;;;;;;;;;;5095417;28;20036;-69
2021/09/17 10:01:01;;;;;;;5.22;1.42;;;;;;;;;;5095270;28;20392;-69
2021/09/17 10:03:27;;;;;;;4.15;1.15;;;;;;;;;;5095501;28;20079;-69
2021/09/17 10:05:54;;;;;;;4.28;1.02;;;;;;;;;;5095438;28;20500;-69
2021/09/17 10:08:20;;;;;;;4.20;1.42;;;;;;;;;;5095427;28;20036;-70
2021/09/17 10:10:46;;;;;;;2.03;1.00;;;;;;;;;;5095798;28;20040;-70
2021/09/17 10:13:12;;;;;;;2.45;1.00;;;;;;;;;;5095857;28;20504;-70
2021/09/17 10:15:38;;;;;;;3.10;1.30;;;;;;;;;;5095477;28;20032;-69
2021/09/17 10:18:04;;;;;;;2.97;1.38;;;;;;;;;;5095112;28;20039;-70
2021/09/17 10:20:37;;;;;;;4.28;1.20;;;;;;;;;;5095082;28;20028;-70
2021/09/17 10:23:22;;;;;;;1.92;1.10;;;;;;;;;;5095216;28;20047;-69
2021/09/17 10:26:07;;;;;;;5.05;1.20;;;;;;;;;;5095270;28;20397;-69
2021/09/17 10:28:34;;;;;;;3.42;1.17;;;;;;;;;;5094630;28;20468;-70
2021/09/17 10:31:16;;;;;;;4.93;1.40;;;;;;;;;;5095241;28;20477;-69
2021/09/17 10:33:42;;;;;;;5.88;1.65;;;;;;;;;;5094602;28;20035;-70
2021/09/17 10:36:09;;;;;;;4.28;1.42;;;;;;;;;;5094187;28;20439;-69
2021/09/17 10:38:35;;;;;;;4.80;1.20;;;;;;;;;;5095269;28;20040;-70
2021/09/17 10:41:02;;;;;;;2.15;0.90;;;;;;;;;;5094659;28;20024;-69
2021/09/17 10:43:28;;;;;;;6.07;1.25;;;;;;;;;;5093362;28;20044;-69
2021/09/17 10:45:55;;;;;;;3.50;1.10;;;;;;;;;;5094535;28;20036;-70
2021/09/17 10:48:22;;;;;;;4.18;1.30;;;;;;;;;;5094852;28;20060;-69
2021/09/17 10:50:53;;;;;;;4.35;1.20;;;;;;;;;;5094780;28;20028;-69
2021/09/17 10:53:44;;;;;;;2.17;1.13;;;;;;;;;;5094318;28;20032;-69
2021/09/17 10:56:13;;;;;;;2.97;1.10;;;;;;;;;;5084269;28;20516;-69
2021/09/17 10:58:46;;;;;;;1.42;1.10;;;;;;;;;;5091524;28;20028;-70
2021/09/17 11:01:16;;;;;;;2.28;1.17;;;;;;;;;;5090975;28;20035;-70
2021/09/17 11:03:45;;;;;;;1.92;1.17;;;;;;;;;;5092109;28;20044;-70
2021/09/17 11:06:27;;;;;;;3.35;1.02;;;;;;;;;;5094735;28;20036;-69
2021/09/17 11:09:04;;;;;;;2.67;1.30;;;;;;;;;;5094614;28;20041;-69
2021/09/17 11:11:30;;;;;;;2.40;1.35;;;;;;;;;;5094415;28;20761;-70
2021/09/17 11:13:58;;;;;;;2.17;1.10;;;;;;;;;;5094162;28;20386;-69
2021/09/17 11:16:25;;;;;;;3.33;1.30;;;;;;;;;;5094551;28;20108;-69
2021/09/17 11:19:01;;;;;;;3.60;1.17;;;;;;;;;;5094213;28;20115;-71
2021/09/17 11:21:28;;;;;;;3.65;1.17;;;;;;;;;;5094193;28;20032;-71
2021/09/17 11:23:55;;;;;;;3.78;1.02;;;;;;;;;;5091935;28;20090;-71
2021/09/17 11:26:22;;;;;;;4.13;1.30;;;;;;;;;;5091445;28;20036;-71
2021/09/17 11:28:57;;;;;;;5.57;1.30;;;;;;;;;;5091302;28;20036;-71
2021/09/17 11:31:26;;;;;;;1.75;1.15;;;;;;;;;;5093673;28;20086;-71
2021/09/17 11:33:59;;;;;;;3.60;1.30;;;;;;;;;;5093836;28;20465;-72
2021/09/17 11:36:34;;;;;;;5.15;1.10;;;;;;;;;;5094085;28;20085;-72
2021/09/17 11:39:19;;;;;;;1.75;0.90;;;;;;;;;;5093911;28;20089;-73
2021/09/17 11:41:46;;;;;;;2.67;1.20;;;;;;;;;;5093558;28;20086;-76
2021/09/17 11:44:31;;;;;;;2.47;0.95;;;;;;;;;;5094307;28;20028;-73
2021/09/17 11:46:57;;;;;;;1.85;0.80;;;;;;;;;;5093649;28;20028;-73
2021/09/17 11:49:25;;;;;;;2.20;0.82;;;;;;;;;;5093880;28;20032;-75
2021/09/17 11:51:56;;;;;;;1.63;0.90;;;;;;;;;;5093627;28;20032;-73
2021/09/17 11:54:22;;;;;;;1.92;1.05;;;;;;;;;;5093399;28;20035;-72
2021/09/17 11:57:00;;;;;;;2.88;1.10;;;;;;;;;;5093719;28;20059;-72
2021/09/17 11:59:33;;;;;;;2.72;1.08;;;;;;;;;;5093364;28;20137;-72
2021/09/17 12:02:17;;;;;;;5.50;1.10;;;;;;;;;;5093229;28;20054;-70
2021/09/17 12:04:46;;;;;;;3.60;1.23;;;;;;;;;;5093212;28;20047;-72
2021/09/17 12:07:12;;;;;;;5.88;1.10;;;;;;;;;;5092655;28;20024;-72
2021/09/17 12:09:39;;;;;;;4.25;1.20;;;;;;;;;;5092200;28;20032;-72
2021/09/17 12:12:05;;;;;;;6.72;1.25;;;;;;;;;;5093402;28;20033;-71
2021/09/17 12:14:31;;;;;;;4.40;1.30;;;;;;;;;;5092612;28;20093;-72
2021/09/17 12:17:04;;;;;;;2.30;1.10;;;;;;;;;;5093067;28;20441;-72
2021/09/17 12:19:30;;;;;;;2.13;1.10;;;;;;;;;;5093386;28;20032;-72
2021/09/17 12:22:02;;;;;;;4.38;1.20;;;;;;;;;;5093592;28;20040;-72
2021/09/17 12:24:29;;;;;;;3.28;1.20;;;;;;;;;;5093271;28;20052;-69
2021/09/17 12:26:56;;;;;;;3.35;0.80;;;;;;;;;;5093003;28;20484;-72
2021/09/17 12:29:22;;;;;;;6.82;1.20;;;;;;;;;;5093048;28;20032;-72
2021/09/17 12:31:48;;;;;;;2.63;1.00;;;;;;;;;;5092642;28;20036;-73
2021/09/17 12:34:21;;;;;;;3.35;0.90;;;;;;;;;;5092916;28;20052;-73
2021/09/17 12:36:51;;;;;;;1.40;0.80;;;;;;;;;;5092972;28;20036;-73
2021/09/17 12:39:20;;;;;;;1.20;0.73;;;;;;;;;;5092757;28;20031;-73
2021/09/17 12:41:48;;;;;;;2.63;1.27;;;;;;;;;;5092868;28;20032;-74
2021/09/17 12:44:16;;;;;;;1.52;0.75;;;;;;;;;;5092761;28;20040;-73
2021/09/17 12:46:43;;;;;;;3.08;0.98;;;;;;;;;;5092838;28;20051;-73
2021/09/17 12:49:10;;;;;;;1.95;0.90;;;;;;;;;;5093102;28;20048;-73
2021/09/17 12:51:37;;;;;;;3.88;0.90;;;;;;;;;;5092798;28;20123;-73
2021/09/17 12:54:12;;;;;;;1.73;1.05;;;;;;;;;;5092320;28;20449;-73
2021/09/17 12:56:38;;;;;;;1.75;0.70;;;;;;;;;;5092228;28;20373;-74
2021/09/17 12:59:14;;;;;;;2.38;0.90;;;;;;;;;;5092446;28;20047;-73
2021/09/17 13:01:41;;;;;;;1.08;0.80;;;;;;;;;;5091865;28;20028;-73
2021/09/17 13:04:08;;;;;;;1.80;0.80;;;;;;;;;;5092743;28;20036;-73
2021/09/17 13:06:34;;;;;;;1.10;0.80;;;;;;;;;;5092746;28;20031;-73
2021/09/17 13:09:01;;;;;;;4.20;0.90;;;;;;;;;;5092651;28;20040;-74
2021/09/17 13:11:27;;;;;;;1.88;0.90;;;;;;;;;;5092803;28;20037;-74
2021/09/17 13:13:53;;;;;;;5.20;1.10;;;;;;;;;;5092516;28;20150;-73
2021/09/17 13:16:20;;;;;;;1.92;0.98;;;;;;;;;;5093090;28;20060;-73
2021/09/17 13:18:46;;;;;;;2.97;1.17;;;;;;;;;;5093018;28;20039;-73
2021/09/17 13:21:14;;;;;;;2.40;1.00;;;;;;;;;;5092774;28;20078;-73
2021/09/17 13:23:40;;;;;;;2.92;1.00;;;;;;;;;;5092880;28;20043;-73
2021/09/17 13:26:06;;;;;;;3.58;1.02;;;;;;;;;;5093822;28;20035;-73
2021/09/17 13:28:33;;;;;;;2.42;1.58;;;;;;;;;;5096861;28;20036;-73
2021/09/17 13:30:59;;;;;;;3.45;1.52;;;;;;;;;;5097030;28;20035;-73
2021/09/17 13:33:25;;;;;;;1.50;0.80;;;;;;;;;;5096175;28;20568;-73
2021/09/17 13:35:51;;;;;;;1.58;0.80;;;;;;;;;;5096802;28;20055;-73
2021/09/17 13:38:18;;;;;;;4.22;0.80;;;;;;;;;;5096384;28;20040;-73
2021/09/17 13:40:44;;;;;;;2.47;1.10;;;;;;;;;;5096478;28;20021;-73
2021/09/17 13:43:10;;;;;;;1.55;0.80;;;;;;;;;;5096675;28;20047;-74
2021/09/17 13:45:37;;;;;;;1.48;0.90;;;;;;;;;;5096240;28;20031;-74
2021/09/17 13:48:03;;;;;;;0.63;0.60;;;;;;;;;;5096280;28;20509;-73
2021/09/17 13:50:30;;;;;;;2.05;0.90;;;;;;;;;;5096269;28;20107;-73
2021/09/17 13:52:57;;;;;;;4.22;0.75;;;;;;;;;;5096170;28;20080;-73
2021/09/17 13:55:26;;;;;;;1.40;0.70;;;;;;;;;;5096197;28;20064;-73
2021/09/17 13:57:52;;;;;;;1.48;0.77;;;;;;;;;;5096046;28;20500;-74
2021/09/17 14:00:20;;;;;;;1.40;0.88;;;;;;;;;;5096558;28;20457;-74
2021/09/17 14:02:46;;;;;;;1.73;0.85;;;;;;;;;;5096188;28;20040;-74
2021/09/17 14:05:12;;;;;;;2.75;0.73;;;;;;;;;;5096300;28;20034;-73
2021/09/17 14:07:39;;;;;;;1.25;0.73;;;;;;;;;;5096024;28;20567;-73
2021/09/17 14:10:06;;;;;;;2.30;0.70;;;;;;;;;;5095912;28;20059;-74
2021/09/17 14:12:33;;;;;;;1.58;0.80;;;;;;;;;;5096087;28;20446;-74
2021/09/17 14:14:59;;;;;;;1.13;0.70;;;;;;;;;;5095758;28;20062;-73
2021/09/17 14:17:25;;;;;;;1.67;0.80;;;;;;;;;;5095875;28;20035;-74
2021/09/17 14:19:51;;;;;;;2.55;0.82;;;;;;;;;;5095752;28;20092;-74
2021/09/17 14:22:17;;;;;;;3.33;0.93;;;;;;;;;;5095680;28;20059;-74
2021/09/17 14:24:43;;;;;;;1.88;0.77;;;;;;;;;;5095857;28;20032;-73
2021/09/17 14:27:09;;;;;;;3.25;0.50;;;;;;;;;;5095795;28;20154;-73
2021/09/17 14:29:36;;;;;;;1.10;0.70;;;;;;;;;;5095586;28;20035;-73
2021/09/17 14:32:02;;;;;;;3.50;0.60;;;;;;;;;;5095437;28;20043;-73
2021/09/17 14:34:28;;;;;;;0.52;0.52;;;;;;;;;;5095313;28;20469;-73
2021/09/17 14:36:54;;;;;;;0.90;0.60;;;;;;;;;;5094885;28;20043;-73
2021/09/17 14:39:21;;;;;;;1.23;0.60;;;;;;;;;;5095762;28;20038;-74
2021/09/17 14:41:47;;;;;;;0.60;0.55;;;;;;;;;;5095664;28;20071;-73